createdAt,value
2022-08-08T00:00:52.133Z,101423.69
2022-08-08T00:02:32.874Z,101434.53
2022-08-08T00:05:09.785Z,101432.16
2022-08-08T00:07:49.274Z,101427.69
2022-08-08T00:10:28.542Z,101432.47
2022-08-08T00:13:05.505Z,101433.47
2022-08-08T00:15:56.511Z,101430.75
2022-08-08T00:18:38.489Z,101430.66
2022-08-08T00:21:08.776Z,101430.13
2022-08-08T00:23:47.629Z,101433.56
2022-08-08T00:26:26.076Z,101432.97
2022-08-08T00:29:03.867Z,101437.03
2022-08-08T00:32:20.362Z,101439.88
2022-08-08T00:34:59.557Z,101435.72
2022-08-08T00:37:47.624Z,101438.56
2022-08-08T00:41:12.841Z,101443.97
2022-08-08T00:43:55.976Z,101428.50
2022-08-08T00:46:58.947Z,101436.63
2022-08-08T00:49:58.583Z,101433.19
2022-08-08T00:52:40.705Z,101435.22
2022-08-08T00:56:04.050Z,101437.09
2022-08-08T00:59:44.693Z,101430.38
2022-08-08T01:03:54.048Z,101435.09
2022-08-08T01:05:59.589Z,101440.59
2022-08-08T01:08:56.078Z,101440.06
2022-08-08T01:12:07.039Z,101441.00
2022-08-08T01:15:37.341Z,101437.56
2022-08-08T01:18:53.396Z,101438.50
2022-08-08T01:22:09.860Z,101441.47
2022-08-08T01:25:02.158Z,101440.84
2022-08-08T01:28:00.200Z,101444.59
2022-08-08T01:32:02.789Z,101449.44
2022-08-08T01:34:49.615Z,101445.94
2022-08-08T01:37:57.828Z,101450.44
2022-08-08T01:40:47.154Z,101445.50
2022-08-08T01:43:34.625Z,101447.38
2022-08-08T01:46:27.423Z,101437.59
2022-08-08T01:49:02.757Z,101429.72
2022-08-08T01:52:53.975Z,101436.13
2022-08-08T01:55:19.690Z,101442.50
2022-08-08T01:58:11.921Z,101439.38
2022-08-08T02:01:09.054Z,101435.78
2022-08-08T02:04:06.466Z,101444.03
2022-08-08T02:06:57.419Z,101441.63
2022-08-08T02:10:02.555Z,101439.09
2022-08-08T02:12:35.417Z,101449.03
2022-08-08T02:15:11.446Z,101448.38
2022-08-08T02:17:54.374Z,101451.25
2022-08-08T02:21:00.946Z,101440.63
2022-08-08T02:23:23.011Z,101443.50
2022-08-08T02:26:08.091Z,101446.22
2022-08-08T02:28:51.678Z,101442.72
2022-08-08T02:31:57.937Z,101440.25
2022-08-08T02:35:10.722Z,101433.41
2022-08-08T02:37:52.544Z,101436.03
2022-08-08T02:40:40.226Z,101439.56
2022-08-08T02:44:36.799Z,101435.38
2022-08-08T02:46:55.118Z,101440.03
2022-08-08T02:50:00.190Z,101438.44
2022-08-08T02:52:51.088Z,101443.13
2022-08-08T02:55:58.008Z,101441.34
2022-08-08T02:59:26.019Z,101439.72
2022-08-08T03:02:30.256Z,101435.63
2022-08-08T03:05:32.906Z,101434.06
2022-08-08T03:08:43.260Z,101433.31
2022-08-08T03:12:02.504Z,101443.22
2022-08-08T03:15:58.357Z,101444.38
2022-08-08T03:17:59.901Z,101446.00
2022-08-08T03:20:51.342Z,101444.50
2022-08-08T03:23:39.741Z,101451.66
2022-08-08T03:26:25.557Z,101448.13
2022-08-08T03:29:03.286Z,101454.31
2022-08-08T03:32:06.111Z,101448.38
2022-08-08T03:34:39.836Z,101453.78
2022-08-08T03:38:00.009Z,101456.66
2022-08-08T03:40:07.179Z,101459.44
2022-08-08T03:42:56.899Z,101457.72
2022-08-08T03:46:05.746Z,101463.94
2022-08-08T03:49:08.881Z,101463.16
2022-08-08T03:51:10.653Z,101469.31
2022-08-08T03:53:47.574Z,101471.13
2022-08-08T03:56:31.834Z,101480.19
2022-08-08T03:59:03.563Z,101483.78
2022-08-08T04:02:12.916Z,101483.84
2022-08-08T04:04:30.622Z,101487.44
2022-08-08T04:07:01.969Z,101486.75
2022-08-08T04:10:02.870Z,101492.13
2022-08-08T04:12:30.729Z,101486.81
2022-08-08T04:15:02.211Z,101487.81
2022-08-08T04:17:58.451Z,101491.50
2022-08-08T04:20:28.313Z,101488.78
2022-08-08T04:23:03.588Z,101490.72
2022-08-08T04:25:38.365Z,101495.34
2022-08-08T04:28:39.947Z,101490.97
2022-08-08T04:31:04.766Z,101504.22
2022-08-08T04:33:42.073Z,101495.41
2022-08-08T04:36:12.914Z,101492.75
2022-08-08T04:38:43.809Z,101499.19
2022-08-08T04:41:17.833Z,101494.94
2022-08-08T04:43:57.224Z,101498.28
2022-08-08T04:46:27.665Z,101501.97
2022-08-08T04:49:01.281Z,101502.09
2022-08-08T04:51:55.195Z,101502.81
2022-08-08T04:54:40.006Z,101506.34
2022-08-08T04:57:11.509Z,101513.56
2022-08-08T04:59:44.275Z,101504.63
2022-08-08T05:02:14.834Z,101509.91
2022-08-08T05:04:50.125Z,101511.88
2022-08-08T05:07:19.914Z,101514.44
2022-08-08T05:09:49.799Z,101517.06
2022-08-08T05:12:20.651Z,101512.63
2022-08-08T05:14:54.704Z,101515.22
2022-08-08T05:17:24.474Z,101515.34
2022-08-08T05:20:09.270Z,101513.34
2022-08-08T05:22:44.125Z,101509.78
2022-08-08T05:25:15.863Z,101503.59
2022-08-08T05:27:45.579Z,101506.09
2022-08-08T05:30:28.425Z,101511.19
2022-08-08T05:32:59.770Z,101508.59
2022-08-08T05:35:34.288Z,101502.50
2022-08-08T05:38:31.813Z,101505.84
2022-08-08T05:41:07.791Z,101502.19
2022-08-08T05:44:04.225Z,101497.69
2022-08-08T05:46:31.510Z,101506.31
2022-08-08T05:49:11.033Z,101508.03
2022-08-08T05:51:48.156Z,101514.06
2022-08-08T05:54:28.737Z,101509.50
2022-08-08T05:57:57.551Z,101508.50
2022-08-08T06:00:25.256Z,101509.97
2022-08-08T06:03:24.800Z,101513.38
2022-08-08T06:06:01.152Z,101529.00
2022-08-08T06:08:35.125Z,101519.25
2022-08-08T06:11:09.656Z,101527.09
2022-08-08T06:13:47.901Z,101525.28
2022-08-08T06:16:27.405Z,101528.56
2022-08-08T06:19:11.243Z,101536.19
2022-08-08T06:21:48.719Z,101531.72
2022-08-08T06:24:30.460Z,101540.41
2022-08-08T06:27:06.810Z,101551.53
2022-08-08T06:29:59.682Z,101547.09
2022-08-08T06:32:34.321Z,101544.50
2022-08-08T06:35:11.856Z,101555.72
2022-08-08T06:38:09.279Z,101551.88
2022-08-08T06:40:48.533Z,101550.28
2022-08-08T06:43:28.425Z,101554.31
2022-08-08T06:46:08.734Z,101548.75
2022-08-08T06:48:40.042Z,101548.28
2022-08-08T06:51:17.117Z,101541.69
2022-08-08T06:53:51.216Z,101548.16
2022-08-08T06:56:33.131Z,101545.00
2022-08-08T06:59:09.850Z,101552.59
2022-08-08T07:02:16.998Z,101550.94
2022-08-08T07:04:45.479Z,101545.22
2022-08-08T07:07:28.457Z,101543.53
2022-08-08T07:10:07.931Z,101548.31
2022-08-08T07:12:49.720Z,101547.72
2022-08-08T07:16:03.778Z,101554.47
2022-08-08T07:18:40.553Z,101562.06
2022-08-08T07:21:18.524Z,101560.25
2022-08-08T07:24:01.355Z,101563.00
2022-08-08T07:26:37.919Z,101558.88
2022-08-08T07:29:11.523Z,101570.59
2022-08-08T07:31:43.645Z,101565.56
2022-08-08T07:34:20.424Z,101565.88
2022-08-08T07:36:58.176Z,101564.28
2022-08-08T07:39:45.233Z,101568.06
2022-08-08T07:42:21.153Z,101568.22
2022-08-08T07:45:03.924Z,101564.06
2022-08-08T07:47:38.466Z,101565.84
2022-08-08T07:50:12.177Z,101571.13
2022-08-08T07:52:47.508Z,101563.88
2022-08-08T07:55:28.779Z,101572.38
2022-08-08T07:58:08.383Z,101572.84
2022-08-08T08:00:46.318Z,101581.28
2022-08-08T08:03:30.997Z,101572.19
2022-08-08T08:06:16.676Z,101575.47
2022-08-08T08:08:53.095Z,101575.56
2022-08-08T08:11:33.998Z,101579.78
2022-08-08T08:14:29.008Z,101580.34
2022-08-08T08:16:59.740Z,101573.25
2022-08-08T08:19:45.399Z,101582.13
2022-08-08T08:22:31.456Z,101583.59
2022-08-08T08:25:07.392Z,101575.34
2022-08-08T08:27:46.588Z,101577.56
2022-08-08T08:30:17.911Z,101577.28
2022-08-08T08:32:51.300Z,101575.16
2022-08-08T08:35:29.859Z,101574.66
2022-08-08T08:38:18.053Z,101571.56
2022-08-08T08:40:56.773Z,101569.63
2022-08-08T08:43:29.453Z,101564.66
2022-08-08T08:46:03.567Z,101563.53
2022-08-08T08:48:36.769Z,101570.72
2022-08-08T08:51:19.096Z,101573.03
2022-08-08T08:53:55.923Z,101569.56
2022-08-08T08:56:31.953Z,101576.88
2022-08-08T08:59:15.386Z,101567.03
2022-08-08T09:01:54.395Z,101571.34
2022-08-08T09:04:31.626Z,101567.84
2022-08-08T09:07:13.672Z,101566.47
2022-08-08T09:09:55.107Z,101563.91
2022-08-08T09:12:30.609Z,101571.00
2022-08-08T09:15:06.354Z,101568.47
2022-08-08T09:17:55.793Z,101563.22
2022-08-08T09:22:02.947Z,101569.69
2022-08-08T09:23:25.399Z,101570.66
2022-08-08T09:26:02.538Z,101567.25
2022-08-08T09:28:41.228Z,101568.72
2022-08-08T09:31:26.909Z,101569.06
2022-08-08T09:34:30.736Z,101570.78
2022-08-08T09:37:29.281Z,101567.19
2022-08-08T09:40:10.705Z,101561.03
2022-08-08T09:42:44.393Z,101555.03
2022-08-08T09:45:55.512Z,101558.69
2022-08-08T09:48:18.355Z,101558.38
2022-08-08T09:50:51.050Z,101558.47
2022-08-08T09:53:53.176Z,101553.88
2022-08-08T09:56:21.831Z,101553.34
2022-08-08T09:58:58.017Z,101552.69
2022-08-08T10:01:59.339Z,101548.75
2022-08-08T10:04:41.295Z,101552.09
2022-08-08T10:07:15.540Z,101550.34
2022-08-08T10:09:59.579Z,101550.91
2022-08-08T10:12:53.827Z,101553.34
2022-08-08T10:15:27.971Z,101554.25
2022-08-08T10:18:06.432Z,101548.03
2022-08-08T10:20:57.881Z,101548.88
2022-08-08T10:23:47.183Z,101545.66
2022-08-08T10:26:29.692Z,101541.56
2022-08-08T10:29:05.769Z,101535.59
2022-08-08T10:31:49.287Z,101535.50
2022-08-08T10:34:22.966Z,101535.50
2022-08-08T10:36:56.362Z,101529.63
2022-08-08T10:39:43.286Z,101527.19
2022-08-08T10:42:17.563Z,101538.44
2022-08-08T10:44:49.473Z,101530.63
2022-08-08T10:47:22.138Z,101535.88
2022-08-08T10:50:01.968Z,101531.50
2022-08-08T10:52:36.143Z,101537.88
2022-08-08T10:55:09.897Z,101532.63
2022-08-08T10:57:49.806Z,101538.63
2022-08-08T11:00:25.455Z,101534.78
2022-08-08T11:02:55.931Z,101533.38
2022-08-08T11:05:27.591Z,101527.97
2022-08-08T11:08:30.720Z,101527.81
2022-08-08T11:11:08.219Z,101526.25
2022-08-08T11:14:00.563Z,101518.00
2022-08-08T11:16:34.597Z,101519.31
2022-08-08T11:19:10.469Z,101507.94
2022-08-08T11:21:55.728Z,101516.44
2022-08-08T11:24:29.911Z,101516.16
2022-08-08T11:27:19.794Z,101507.44
2022-08-08T11:30:20.586Z,101508.03
2022-08-08T11:32:47.294Z,101506.56
2022-08-08T11:35:24.921Z,101504.97
2022-08-08T11:38:38.560Z,101503.56
2022-08-08T11:40:58.039Z,101505.53
2022-08-08T11:43:39.305Z,101507.22
2022-08-08T11:46:17.266Z,101502.50
2022-08-08T11:48:48.351Z,101501.41
2022-08-08T11:51:30.793Z,101497.69
2022-08-08T11:54:31.567Z,101499.34
2022-08-08T11:57:14.630Z,101498.34
2022-08-08T12:00:00.709Z,101501.47
2022-08-08T12:02:51.198Z,101492.75
2022-08-08T12:05:22.867Z,101495.00
2022-08-08T12:07:56.596Z,101495.41
2022-08-08T12:10:27.787Z,101491.25
2022-08-08T12:13:09.778Z,101493.34
2022-08-08T12:15:49.033Z,101488.34
2022-08-08T12:18:24.325Z,101487.47
2022-08-08T12:20:58.611Z,101486.88
2022-08-08T12:23:43.636Z,101490.97
2022-08-08T12:26:27.721Z,101478.59
2022-08-08T12:29:25.694Z,101482.00
2022-08-08T12:32:13.198Z,101474.00
2022-08-08T12:34:48.960Z,101476.25
2022-08-08T12:37:25.846Z,101475.53
2022-08-08T12:40:22.480Z,101477.63
2022-08-08T12:42:55.658Z,101482.28
2022-08-08T12:45:57.988Z,101477.44
2022-08-08T12:48:36.707Z,101477.09
2022-08-08T12:51:22.556Z,101476.50
2022-08-08T12:54:00.559Z,101479.72
2022-08-08T12:56:37.416Z,101475.16
2022-08-08T12:59:18.140Z,101477.88
2022-08-08T13:01:57.602Z,101473.69
2022-08-08T13:04:28.706Z,101472.53
2022-08-08T13:07:03.051Z,101461.53
2022-08-08T13:09:57.543Z,101466.94
2022-08-08T13:12:32.541Z,101455.81
2022-08-08T13:15:04.975Z,101468.75
2022-08-08T13:18:10.058Z,101462.31
2022-08-08T13:20:27.928Z,101460.28
2022-08-08T13:23:29.953Z,101450.47
2022-08-08T13:25:58.767Z,101457.84
2022-08-08T13:28:33.099Z,101455.97
2022-08-08T13:31:04.485Z,101456.81
2022-08-08T13:33:42.757Z,101450.94
2022-08-08T13:36:13.858Z,101453.16
2022-08-08T13:38:43.753Z,101457.56
2022-08-08T13:41:16.136Z,101458.56
2022-08-08T13:43:50.763Z,101443.00
2022-08-08T13:46:26.595Z,101454.00
2022-08-08T13:49:11.246Z,101449.06
2022-08-08T13:51:48.510Z,101447.00
2022-08-08T13:54:29.434Z,101445.72
2022-08-08T13:57:12.341Z,101449.44
2022-08-08T13:59:48.733Z,101440.63
2022-08-08T14:02:21.362Z,101443.78
2022-08-08T14:05:08.889Z,101444.66
2022-08-08T14:07:52.610Z,101449.72
2022-08-08T14:10:33.106Z,101450.69
2022-08-08T14:13:31.189Z,101456.59
2022-08-08T14:16:16.048Z,101453.03
2022-08-08T14:18:56.289Z,101449.84
2022-08-08T14:21:51.851Z,101457.97
2022-08-08T14:24:33.284Z,101452.09
2022-08-08T14:27:07.695Z,101454.63
2022-08-08T14:29:39.433Z,101453.47
2022-08-08T14:32:16.056Z,101455.13
2022-08-08T14:34:53.807Z,101451.84
2022-08-08T14:37:28.004Z,101440.72
2022-08-08T14:40:13.778Z,101443.78
2022-08-08T14:42:54.812Z,101439.22
2022-08-08T14:45:33.422Z,101441.94
2022-08-08T14:48:27.306Z,101440.91
2022-08-08T14:51:07.837Z,101450.38
2022-08-08T14:53:55.005Z,101446.28
2022-08-08T14:56:26.544Z,101443.56
2022-08-08T14:58:56.359Z,101446.59
2022-08-08T15:01:37.576Z,101448.91
2022-08-08T15:04:11.027Z,101449.09
2022-08-08T15:06:42.598Z,101442.28
2022-08-08T15:09:19.574Z,101442.59
2022-08-08T15:11:53.419Z,101438.00
2022-08-08T15:14:26.446Z,101440.44
2022-08-08T15:16:57.117Z,101434.84
2022-08-08T15:19:28.232Z,101438.94
2022-08-08T15:21:58.484Z,101443.50
2022-08-08T15:24:32.031Z,101436.09
2022-08-08T15:27:12.089Z,101440.09
2022-08-08T15:29:51.657Z,101439.09
2022-08-08T15:32:27.341Z,101442.81
2022-08-08T15:35:00.438Z,101440.94
2022-08-08T15:37:34.032Z,101434.53
2022-08-08T15:40:11.355Z,101436.72
2022-08-08T15:42:49.741Z,101427.91
2022-08-08T15:45:23.101Z,101432.13
2022-08-08T15:48:15.987Z,101436.72
2022-08-08T15:50:58.772Z,101439.03
2022-08-08T15:53:33.105Z,101439.03
2022-08-08T15:56:13.317Z,101430.81
2022-08-08T15:58:45.900Z,101442.28
2022-08-08T16:01:18.297Z,101425.94
2022-08-08T16:03:51.547Z,101423.03
2022-08-08T16:06:28.958Z,101420.31
2022-08-08T16:13:00.748Z,101420.41
2022-08-08T16:13:02.012Z,101412.03
2022-08-08T16:14:52.635Z,101414.16
2022-08-08T16:17:57.792Z,101421.06
2022-08-08T16:20:13.881Z,101412.38
2022-08-08T16:22:44.081Z,101424.06
2022-08-08T16:25:20.356Z,101415.25
2022-08-08T16:27:57.912Z,101416.94
2022-08-08T16:30:36.086Z,101417.09
2022-08-08T16:33:06.687Z,101418.72
2022-08-08T16:35:39.243Z,101417.19
2022-08-08T16:38:16.172Z,101416.44
2022-08-08T16:40:46.608Z,101412.81
2022-08-08T16:43:22.158Z,101416.53
2022-08-08T16:46:43.974Z,101418.97
2022-08-08T16:48:43.572Z,101418.13
2022-08-08T16:55:01.172Z,101416.44
2022-08-08T16:55:04.911Z,101416.44
2022-08-08T16:57:04.105Z,101422.16
2022-08-08T16:59:52.038Z,101421.31
2022-08-08T17:02:38.221Z,101417.75
2022-08-08T17:05:10.050Z,101418.75
2022-08-08T17:07:44.205Z,101420.75
2022-08-08T17:10:19.102Z,101421.91
2022-08-08T17:12:52.944Z,101415.81
2022-08-08T17:15:25.581Z,101426.06
2022-08-08T17:18:04.702Z,101424.06
2022-08-08T17:20:40.601Z,101423.53
2022-08-08T17:23:18.058Z,101423.69
2022-08-08T17:26:05.877Z,101431.38
2022-08-08T17:28:35.755Z,101425.53
2022-08-08T17:31:15.077Z,101432.81
2022-08-08T17:34:48.550Z,101436.09
2022-08-08T17:37:03.059Z,101444.47
2022-08-08T17:40:02.948Z,101451.22
2022-08-08T17:42:23.565Z,101453.91
2022-08-08T17:44:53.464Z,101452.00
2022-08-08T17:47:27.998Z,101451.56
2022-08-08T17:50:01.505Z,101451.72
2022-08-08T17:52:33.375Z,101450.91
2022-08-08T17:55:05.339Z,101451.06
2022-08-08T17:57:39.563Z,101455.91
2022-08-08T18:00:19.572Z,101458.19
2022-08-08T18:03:08.045Z,101459.94
2022-08-08T18:05:48.999Z,101460.66
2022-08-08T18:08:25.270Z,101459.28
2022-08-08T18:11:14.611Z,101461.41
2022-08-08T18:13:47.090Z,101467.81
2022-08-08T18:16:23.352Z,101461.28
2022-08-08T18:18:57.571Z,101463.69
2022-08-08T18:21:59.805Z,101462.41
2022-08-08T18:24:21.738Z,101474.34
2022-08-08T18:26:55.842Z,101471.38
2022-08-08T18:29:33.698Z,101476.63
2022-08-08T18:32:06.789Z,101473.22
2022-08-08T18:34:42.739Z,101470.38
2022-08-08T18:37:17.838Z,101473.63
2022-08-08T18:40:02.246Z,101478.63
2022-08-08T18:42:31.915Z,101472.22
2022-08-08T18:45:09.274Z,101478.47
2022-08-08T18:47:51.220Z,101490.34
2022-08-08T18:50:24.398Z,101493.31
2022-08-08T18:52:54.564Z,101498.28
2022-08-08T18:55:28.042Z,101502.50
2022-08-08T18:57:57.876Z,101504.91
2022-08-08T19:00:29.057Z,101507.56
2022-08-08T19:03:06.200Z,101515.50
2022-08-08T19:05:45.145Z,101522.94
2022-08-08T19:08:28.198Z,101526.44
2022-08-08T19:11:01.559Z,101534.47
2022-08-08T19:13:53.588Z,101541.50
2022-08-08T19:16:23.721Z,101541.31
2022-08-08T19:19:02.325Z,101549.47
2022-08-08T19:21:49.455Z,101548.88
2022-08-08T19:24:39.396Z,101547.81
2022-08-08T19:27:11.025Z,101560.94
2022-08-08T19:29:46.014Z,101558.66
2022-08-08T19:32:21.762Z,101563.84
2022-08-08T19:34:52.850Z,101556.38
2022-08-08T19:37:43.168Z,101557.00
2022-08-08T19:40:16.415Z,101565.72
2022-08-08T19:42:47.202Z,101575.13
2022-08-08T19:45:57.324Z,101573.06
2022-08-08T19:48:28.160Z,101573.72
2022-08-08T19:50:57.421Z,101574.09
2022-08-08T19:53:51.069Z,101577.91
2022-08-08T19:56:25.787Z,101586.59
2022-08-08T19:59:12.327Z,101586.22
2022-08-08T20:02:01.109Z,101588.41
2022-08-08T20:04:32.310Z,101587.28
2022-08-08T20:07:05.348Z,101585.09
2022-08-08T20:09:57.169Z,101585.34
2022-08-08T20:12:31.999Z,101594.72
2022-08-08T20:15:14.189Z,101592.50
2022-08-08T20:17:48.144Z,101591.06
2022-08-08T20:20:22.241Z,101592.38
2022-08-08T20:22:55.908Z,101588.56
2022-08-08T20:25:31.337Z,101592.31
2022-08-08T20:28:06.797Z,101602.56
2022-08-08T20:30:53.197Z,101592.13
2022-08-08T20:35:59.011Z,101597.88
2022-08-08T20:38:37.496Z,101603.47
2022-08-08T20:41:17.503Z,101602.34
2022-08-08T20:43:50.303Z,101601.47
2022-08-08T20:46:25.470Z,101595.59
2022-08-08T20:48:58.578Z,101612.19
2022-08-08T20:51:32.535Z,101608.84
2022-08-08T20:54:13.965Z,101611.03
2022-08-08T20:57:17.153Z,101619.31
2022-08-08T20:59:41.720Z,101611.69
2022-08-08T21:02:12.510Z,101611.41
2022-08-08T21:04:43.585Z,101623.34
2022-08-08T21:07:17.990Z,101620.38
2022-08-08T21:10:12.807Z,101611.69
2022-08-08T21:12:46.266Z,101626.41
2022-08-08T21:16:04.212Z,101619.88
2022-08-08T21:18:08.485Z,101628.47
2022-08-08T21:20:38.183Z,101625.97
2022-08-08T21:23:09.142Z,101632.75
2022-08-08T21:25:39.320Z,101625.66
2022-08-08T21:28:15.611Z,101629.66
2022-08-08T21:30:52.005Z,101630.72
2022-08-08T21:33:21.958Z,101627.66
2022-08-08T21:36:17.477Z,101624.41
2022-08-08T21:38:41.587Z,101625.06
2022-08-08T21:41:29.047Z,101629.78
2022-08-08T21:44:03.717Z,101633.66
2022-08-08T21:48:08.148Z,101632.97
2022-08-08T21:49:23.508Z,101632.66
2022-08-08T21:54:32.649Z,101634.72
2022-08-08T21:54:58.186Z,101629.47
2022-08-08T21:57:42.228Z,101636.16
2022-08-08T22:00:16.791Z,101636.47
2022-08-08T22:02:56.093Z,101635.94
2022-08-08T22:05:26.132Z,101647.94
2022-08-08T22:08:00.311Z,101646.50
2022-08-08T22:10:32.208Z,101640.81
2022-08-08T22:13:18.040Z,101650.22
2022-08-08T22:15:59.066Z,101648.63
2022-08-08T22:18:31.188Z,101656.09
2022-08-08T22:21:14.583Z,101662.28
2022-08-08T22:23:50.810Z,101662.72
2022-08-08T22:26:27.928Z,101663.88
2022-08-08T22:29:14.926Z,101665.44
2022-08-08T22:32:01.441Z,101670.81
2022-08-08T22:34:39.646Z,101672.63
2022-08-08T22:37:28.126Z,101678.09
2022-08-08T22:40:01.160Z,101671.09
2022-08-08T22:42:34.582Z,101678.25
2022-08-08T22:45:05.355Z,101669.59
2022-08-08T22:47:47.125Z,101669.97
2022-08-08T22:50:27.189Z,101669.56
2022-08-08T22:54:27.722Z,101668.81
2022-08-08T22:55:58.453Z,101673.41
2022-08-08T22:58:31.204Z,101675.53
2022-08-08T23:02:01.677Z,101667.69
2022-08-08T23:03:57.011Z,101674.09
2022-08-08T23:06:27.318Z,101671.03
2022-08-08T23:08:59.040Z,101674.97
2022-08-08T23:12:27.756Z,101675.75
2022-08-08T23:14:21.505Z,101672.59
2022-08-08T23:16:59.196Z,101679.94
2022-08-08T23:19:32.911Z,101679.06
2022-08-08T23:22:04.993Z,101682.16
2022-08-08T23:24:36.400Z,101680.41
2022-08-08T23:27:07.380Z,101679.66
2022-08-08T23:29:37.479Z,101671.63
2022-08-08T23:32:10.421Z,101679.84
2022-08-08T23:34:49.549Z,101674.59
2022-08-08T23:38:01.702Z,101676.59
2022-08-08T23:40:22.090Z,101673.16
2022-08-08T23:42:52.648Z,101679.63
2022-08-08T23:49:03.212Z,101671.16
2022-08-08T23:49:04.912Z,101673.53
2022-08-08T23:51:04.730Z,101673.03
2022-08-08T23:53:56.105Z,101676.97
2022-08-08T23:56:34.074Z,101682.38
2022-08-08T23:59:04.027Z,101684.50
